createdAt,value
2023-01-19T00:01:01.630Z,97999.78
2023-01-19T00:03:28.210Z,98010.31
2023-01-19T00:05:57.257Z,98016.94
2023-01-19T00:08:23.907Z,98014.97
2023-01-19T00:10:50.811Z,98006.81
2023-01-19T00:13:17.225Z,97993.44
2023-01-19T00:15:44.115Z,98008.88
2023-01-19T00:18:11.103Z,98005.59
2023-01-19T00:20:38.641Z,98017.63
2023-01-19T00:23:05.328Z,98017.13
2023-01-19T00:25:32.005Z,98012.06
2023-01-19T00:28:00.589Z,98018.78
2023-01-19T00:30:27.946Z,97993.44
2023-01-19T00:32:54.338Z,98005.81
2023-01-19T00:35:20.813Z,98019.97
2023-01-19T00:37:47.245Z,97999.66
2023-01-19T00:40:14.290Z,97993.50
2023-01-19T00:42:41.418Z,98033.34
2023-01-19T00:45:10.019Z,98015.34
2023-01-19T00:47:36.975Z,98030.19
2023-01-19T00:50:03.525Z,98025.63
2023-01-19T00:52:29.806Z,98007.13
2023-01-19T00:54:56.272Z,98031.16
2023-01-19T00:57:22.570Z,98038.47
2023-01-19T00:59:48.948Z,98023.38
2023-01-19T01:02:15.584Z,98034.84
2023-01-19T01:04:42.232Z,98034.19
2023-01-19T01:07:08.582Z,98023.31
2023-01-19T01:09:34.886Z,98047.88
2023-01-19T01:12:01.322Z,98030.50
2023-01-19T01:14:28.113Z,98041.38
2023-01-19T01:16:54.679Z,98048.94
2023-01-19T01:19:21.760Z,98050.56
2023-01-19T01:21:48.167Z,98052.59
2023-01-19T01:24:14.547Z,98056.28
2023-01-19T01:26:41.072Z,98051.72
2023-01-19T01:29:07.585Z,98048.13
2023-01-19T01:31:34.065Z,98023.84
2023-01-19T01:34:01.193Z,98046.03
2023-01-19T01:36:27.700Z,98035.16
2023-01-19T01:38:54.106Z,98042.47
2023-01-19T01:41:21.836Z,98056.41
2023-01-19T01:43:55.891Z,98053.91
2023-01-19T01:46:22.289Z,98054.16
2023-01-19T01:48:57.278Z,98034.16
2023-01-19T01:51:49.841Z,98048.00
2023-01-19T01:54:23.408Z,98022.56
2023-01-19T01:56:52.994Z,98054.22
2023-01-19T01:59:32.837Z,98036.91
2023-01-19T02:02:04.804Z,98041.22
2023-01-19T02:04:32.050Z,98051.78
2023-01-19T02:06:58.752Z,98037.00
2023-01-19T02:09:28.719Z,98044.56
2023-01-19T02:11:55.087Z,98031.63
2023-01-19T02:14:21.680Z,98037.28
2023-01-19T02:16:48.219Z,98050.22
2023-01-19T02:19:22.273Z,98051.94
2023-01-19T02:21:59.717Z,98053.50
2023-01-19T02:24:26.157Z,98048.09
2023-01-19T02:26:52.828Z,98038.97
2023-01-19T02:29:22.728Z,98051.06
2023-01-19T02:31:49.393Z,98045.97
2023-01-19T02:34:18.219Z,98053.00
2023-01-19T02:36:49.933Z,98041.28
2023-01-19T02:39:19.341Z,98049.25
2023-01-19T02:41:53.323Z,98053.38
2023-01-19T02:44:21.014Z,98039.38
2023-01-19T02:46:47.350Z,98044.69
2023-01-19T02:49:14.097Z,98049.97
2023-01-19T02:51:43.773Z,98050.97
2023-01-19T02:54:23.040Z,98029.03
2023-01-19T02:57:25.487Z,98039.97
2023-01-19T03:00:08.132Z,98047.22
2023-01-19T03:02:57.973Z,98049.00
2023-01-19T03:05:39.931Z,98059.84
2023-01-19T03:08:15.700Z,98050.25
2023-01-19T03:11:04.187Z,98044.69
2023-01-19T03:13:56.527Z,98042.41
2023-01-19T03:16:34.903Z,98044.44
2023-01-19T03:19:08.213Z,98042.00
2023-01-19T03:21:37.423Z,98045.66
2023-01-19T03:24:08.054Z,98047.44
2023-01-19T03:26:41.435Z,98041.13
2023-01-19T03:29:12.081Z,98043.31
2023-01-19T03:31:41.419Z,98034.41
2023-01-19T03:34:11.653Z,98021.91
2023-01-19T03:36:46.097Z,98041.31
2023-01-19T03:39:17.786Z,98043.31
2023-01-19T03:41:48.593Z,98042.59
2023-01-19T03:44:16.105Z,98045.06
2023-01-19T03:46:43.210Z,98051.53
2023-01-19T03:49:09.819Z,98048.59
2023-01-19T03:51:38.494Z,98036.72
2023-01-19T03:54:06.331Z,98029.19
2023-01-19T03:56:33.201Z,98043.50
2023-01-19T03:58:59.577Z,98045.25
2023-01-19T04:01:26.198Z,98043.78
2023-01-19T04:03:53.074Z,98051.59
2023-01-19T04:06:20.739Z,98049.44
2023-01-19T04:08:51.679Z,98042.34
2023-01-19T04:11:18.412Z,98041.44
2023-01-19T04:13:44.866Z,98049.25
2023-01-19T04:16:11.996Z,98060.09
2023-01-19T04:18:38.330Z,98071.47
2023-01-19T04:21:07.737Z,98070.38
2023-01-19T04:23:34.908Z,98075.78
2023-01-19T04:26:03.944Z,98080.31
2023-01-19T04:28:30.725Z,98073.13
2023-01-19T04:30:57.636Z,98075.50
2023-01-19T04:33:24.809Z,98048.66
2023-01-19T04:35:53.543Z,98073.34
2023-01-19T04:38:20.839Z,98070.69
2023-01-19T04:40:49.034Z,98067.38
2023-01-19T04:43:15.515Z,98066.31
2023-01-19T04:45:41.993Z,98058.94
2023-01-19T04:48:08.650Z,98055.94
2023-01-19T04:50:34.954Z,98046.66
2023-01-19T04:53:01.697Z,98058.81
2023-01-19T04:55:28.228Z,98069.28
2023-01-19T04:57:55.049Z,98061.19
2023-01-19T05:00:22.215Z,98064.44
2023-01-19T05:02:48.629Z,98077.06
2023-01-19T05:05:15.270Z,98080.41
2023-01-19T05:07:43.039Z,98068.03
2023-01-19T05:10:10.403Z,98077.22
2023-01-19T05:12:37.035Z,98089.38
2023-01-19T05:15:04.117Z,98072.53
2023-01-19T05:17:30.502Z,98067.38
2023-01-19T05:19:56.940Z,98075.06
2023-01-19T05:22:23.234Z,98095.97
2023-01-19T05:24:49.731Z,98079.16
2023-01-19T05:27:16.055Z,98099.75
2023-01-19T05:29:42.437Z,98090.63
2023-01-19T05:32:08.746Z,98094.22
2023-01-19T05:34:35.157Z,98080.25
2023-01-19T05:37:01.507Z,98079.97
2023-01-19T05:39:27.987Z,98096.03
2023-01-19T05:41:54.358Z,98082.56
2023-01-19T05:44:20.738Z,98073.75
2023-01-19T05:46:47.141Z,98076.28
2023-01-19T05:49:13.633Z,98074.41
2023-01-19T05:51:40.131Z,98074.75
2023-01-19T05:54:07.742Z,98080.56
2023-01-19T05:56:34.427Z,98083.56
2023-01-19T05:59:01.259Z,98087.41
2023-01-19T06:01:27.767Z,98069.94
2023-01-19T06:03:55.290Z,98073.16
2023-01-19T06:06:21.784Z,98078.41
2023-01-19T06:08:48.172Z,98078.66
2023-01-19T06:11:14.556Z,98088.28
2023-01-19T06:13:42.126Z,98086.19
2023-01-19T06:16:09.133Z,98060.97
2023-01-19T06:18:35.522Z,98069.63
2023-01-19T06:21:09.668Z,98083.25
2023-01-19T06:23:36.557Z,98075.00
2023-01-19T06:26:03.364Z,98085.69
2023-01-19T06:28:29.924Z,98095.00
2023-01-19T06:30:56.553Z,98086.13
2023-01-19T06:33:24.536Z,98081.13
2023-01-19T06:35:51.775Z,98099.59
2023-01-19T06:38:19.244Z,98085.09
2023-01-19T06:40:51.635Z,98090.41
2023-01-19T06:43:18.454Z,98100.50
2023-01-19T06:45:46.087Z,98102.19
2023-01-19T06:48:12.758Z,98106.66
2023-01-19T06:50:39.301Z,98069.53
2023-01-19T06:53:06.021Z,98107.75
2023-01-19T06:55:32.513Z,98083.22
2023-01-19T06:57:59.759Z,98091.66
2023-01-19T07:00:26.555Z,98108.34
2023-01-19T07:02:53.322Z,98112.19
2023-01-19T07:05:19.768Z,98114.31
2023-01-19T07:07:51.695Z,98123.78
2023-01-19T07:10:18.094Z,98121.28
2023-01-19T07:12:44.614Z,98089.84
2023-01-19T07:15:11.189Z,98102.28
2023-01-19T07:17:37.660Z,98111.75
2023-01-19T07:20:04.483Z,98115.38
2023-01-19T07:22:31.062Z,98110.72
2023-01-19T07:24:57.416Z,98126.38
2023-01-19T07:27:25.679Z,98110.63
2023-01-19T07:29:52.095Z,98119.44
2023-01-19T07:32:18.583Z,98119.13
2023-01-19T07:34:45.067Z,98091.88
2023-01-19T07:37:11.388Z,98116.94
2023-01-19T07:39:37.801Z,98122.84
2023-01-19T07:42:04.569Z,98100.47
2023-01-19T07:44:30.882Z,98126.41
2023-01-19T07:46:57.293Z,98127.69
2023-01-19T07:49:24.575Z,98115.59
2023-01-19T07:51:52.627Z,98137.66
2023-01-19T07:54:18.909Z,98112.63
2023-01-19T07:56:45.319Z,98128.94
2023-01-19T07:59:11.692Z,98127.59
2023-01-19T08:01:39.478Z,98151.38
2023-01-19T08:04:05.876Z,98134.50
2023-01-19T08:06:38.699Z,98118.44
2023-01-19T08:09:05.668Z,98143.44
2023-01-19T08:11:32.627Z,98135.19
2023-01-19T08:13:59.347Z,98151.34
2023-01-19T08:16:25.676Z,98122.31
2023-01-19T08:18:52.141Z,98133.22
2023-01-19T08:21:18.548Z,98149.50
2023-01-19T08:23:44.961Z,98148.00
2023-01-19T08:26:26.151Z,98140.97
2023-01-19T08:28:54.169Z,98152.13
2023-01-19T08:31:24.361Z,98122.31
2023-01-19T08:33:52.893Z,98143.72
2023-01-19T08:36:19.987Z,98141.94
2023-01-19T08:38:46.914Z,98149.78
2023-01-19T08:41:17.316Z,98140.09
2023-01-19T08:43:44.401Z,98150.97
2023-01-19T08:46:14.898Z,98103.41
2023-01-19T08:48:41.309Z,98121.78
2023-01-19T08:51:10.574Z,98132.34
2023-01-19T08:53:36.933Z,98129.97
2023-01-19T08:56:03.512Z,98139.03
2023-01-19T08:58:29.941Z,98111.34
2023-01-19T09:00:56.563Z,98125.06
2023-01-19T09:03:23.188Z,98122.56
2023-01-19T09:05:50.155Z,98120.78
2023-01-19T09:08:16.704Z,98117.69
2023-01-19T09:10:50.705Z,98115.75
2023-01-19T09:13:19.041Z,98121.06
2023-01-19T09:15:45.767Z,98118.34
2023-01-19T09:18:15.547Z,98135.00
2023-01-19T09:20:43.714Z,98108.41
2023-01-19T09:23:11.460Z,98130.75
2023-01-19T09:25:39.377Z,98144.63
2023-01-19T09:28:07.181Z,98123.22
2023-01-19T09:30:34.130Z,98133.31
2023-01-19T09:33:04.740Z,98160.75
2023-01-19T09:35:31.145Z,98127.00
2023-01-19T09:37:57.425Z,98117.31
2023-01-19T09:40:24.103Z,98128.16
2023-01-19T09:42:55.662Z,98147.09
2023-01-19T09:45:31.396Z,98148.53
2023-01-19T09:48:00.063Z,98148.88
2023-01-19T09:50:31.768Z,98128.09
2023-01-19T09:53:14.080Z,98142.81
2023-01-19T09:55:41.527Z,98120.09
2023-01-19T09:58:15.890Z,98128.25
2023-01-19T10:00:47.170Z,98112.81
2023-01-19T10:03:18.445Z,98130.06
2023-01-19T10:05:55.432Z,98134.72
2023-01-19T10:08:57.513Z,98130.72
2023-01-19T10:11:51.595Z,98125.47
2023-01-19T10:14:36.549Z,98108.94
2023-01-19T10:17:16.912Z,98122.88
2023-01-19T10:19:53.929Z,98109.16
2023-01-19T10:22:26.759Z,98125.22
2023-01-19T10:25:00.094Z,98114.63
2023-01-19T10:27:29.382Z,98127.97
2023-01-19T10:29:57.356Z,98125.34
2023-01-19T10:32:27.061Z,98150.16
2023-01-19T10:34:54.294Z,98130.28
2023-01-19T10:37:41.680Z,98127.69
2023-01-19T10:40:11.211Z,98122.50
2023-01-19T10:42:40.251Z,98143.22
2023-01-19T10:45:25.243Z,98133.91
2023-01-19T10:47:53.604Z,98135.06
2023-01-19T10:50:24.907Z,98133.56
2023-01-19T10:52:54.239Z,98131.91
2023-01-19T10:55:31.400Z,98126.53
2023-01-19T10:57:59.638Z,98125.56
2023-01-19T11:00:35.376Z,98127.69
2023-01-19T11:03:02.477Z,98112.88
2023-01-19T11:05:31.779Z,98111.03
2023-01-19T11:07:58.513Z,98131.31
2023-01-19T11:10:28.034Z,98126.69
2023-01-19T11:12:54.480Z,98133.28
2023-01-19T11:15:33.755Z,98147.25
2023-01-19T11:18:02.563Z,98119.53
2023-01-19T11:20:47.679Z,98130.63
2023-01-19T11:23:13.910Z,98131.66
2023-01-19T11:25:40.848Z,98125.84
2023-01-19T11:28:17.537Z,98128.78
2023-01-19T11:30:55.783Z,98138.16
2023-01-19T11:33:45.704Z,98114.41
2023-01-19T11:36:18.390Z,98137.81
2023-01-19T11:38:48.115Z,98137.41
2023-01-19T11:41:29.569Z,98144.34
2023-01-19T11:44:19.352Z,98141.09
2023-01-19T11:46:53.257Z,98136.56
2023-01-19T11:49:42.110Z,98139.41
2023-01-19T11:52:26.471Z,98137.81
2023-01-19T11:55:04.034Z,98134.31
2023-01-19T11:57:30.725Z,98129.75
2023-01-19T11:59:57.417Z,98130.28
2023-01-19T12:02:29.127Z,98122.34
2023-01-19T12:05:04.597Z,98137.16
2023-01-19T12:07:33.659Z,98142.31
2023-01-19T12:10:14.484Z,98142.38
2023-01-19T12:12:41.303Z,98140.75
2023-01-19T12:15:26.245Z,98148.91
2023-01-19T12:17:58.578Z,98133.25
2023-01-19T12:20:43.063Z,98128.22
2023-01-19T12:23:44.781Z,98145.78
2023-01-19T12:26:35.497Z,98146.94
2023-01-19T12:29:12.697Z,98128.28
2023-01-19T12:31:40.686Z,98129.19
2023-01-19T12:34:29.399Z,98144.28
2023-01-19T12:37:00.649Z,98154.00
2023-01-19T12:39:26.933Z,98146.59
2023-01-19T12:42:07.579Z,98164.78
2023-01-19T12:44:34.501Z,98147.00
2023-01-19T12:47:18.805Z,98150.97
2023-01-19T12:49:55.888Z,98146.31
2023-01-19T12:52:32.210Z,98145.72
2023-01-19T12:55:02.166Z,98156.38
2023-01-19T12:57:51.583Z,98153.34
2023-01-19T13:00:24.048Z,98151.22
2023-01-19T13:03:13.602Z,98145.69
2023-01-19T13:05:39.931Z,98150.22
2023-01-19T13:08:06.486Z,98154.44
2023-01-19T13:11:00.852Z,98155.41
2023-01-19T13:13:38.659Z,98151.72
2023-01-19T13:16:20.397Z,98147.69
2023-01-19T13:19:09.526Z,98145.53
2023-01-19T13:21:45.258Z,98152.66
2023-01-19T13:24:20.634Z,98153.00
2023-01-19T13:26:50.004Z,98154.75
2023-01-19T13:29:32.820Z,98163.28
2023-01-19T13:32:02.259Z,98142.75
2023-01-19T13:34:31.827Z,98160.75
2023-01-19T13:36:58.458Z,98154.59
2023-01-19T13:39:41.698Z,98170.88
2023-01-19T13:42:14.823Z,98168.84
2023-01-19T13:44:46.170Z,98175.34
2023-01-19T13:47:23.087Z,98177.66
2023-01-19T13:49:55.570Z,98175.72
2023-01-19T13:52:28.197Z,98182.41
2023-01-19T13:55:04.203Z,98187.38
2023-01-19T13:57:42.813Z,98181.19
2023-01-19T14:00:12.228Z,98203.31
2023-01-19T14:02:40.903Z,98195.59
2023-01-19T14:05:37.851Z,98199.13
2023-01-19T14:08:09.995Z,98203.81
2023-01-19T14:10:38.901Z,98208.94
2023-01-19T14:13:22.012Z,98210.72
2023-01-19T14:15:50.432Z,98205.75
2023-01-19T14:18:16.878Z,98219.16
2023-01-19T14:20:57.608Z,98218.00
2023-01-19T14:23:38.815Z,98223.94
2023-01-19T14:26:06.027Z,98226.88
2023-01-19T14:28:32.320Z,98226.09
2023-01-19T14:31:03.984Z,98223.69
2023-01-19T14:33:40.184Z,98221.25
2023-01-19T14:36:27.374Z,98226.63
2023-01-19T14:38:56.183Z,98226.72
2023-01-19T14:41:44.986Z,98237.94
2023-01-19T14:44:18.726Z,98239.19
2023-01-19T14:46:47.811Z,98235.78
2023-01-19T14:49:20.716Z,98236.47
2023-01-19T14:51:48.913Z,98242.84
2023-01-19T14:54:18.968Z,98238.22
2023-01-19T14:56:45.316Z,98246.16
2023-01-19T14:59:11.679Z,98248.31
2023-01-19T15:01:38.146Z,98256.03
2023-01-19T15:04:04.727Z,98249.50
2023-01-19T15:06:32.840Z,98266.00
2023-01-19T15:08:59.241Z,98263.44
2023-01-19T15:11:31.111Z,98267.06
2023-01-19T15:13:57.901Z,98268.94
2023-01-19T15:16:25.974Z,98268.09
2023-01-19T15:18:52.410Z,98271.16
2023-01-19T15:21:20.568Z,98257.91
2023-01-19T15:23:47.270Z,98271.66
2023-01-19T15:26:16.963Z,98286.50
2023-01-19T15:28:43.748Z,98282.16
2023-01-19T15:31:16.019Z,98284.34
2023-01-19T15:33:42.405Z,98292.56
2023-01-19T15:36:20.049Z,98286.66
2023-01-19T15:38:47.143Z,98295.94
2023-01-19T15:41:39.832Z,98297.50
2023-01-19T15:44:06.911Z,98298.44
2023-01-19T15:46:33.274Z,98294.97
2023-01-19T15:48:59.797Z,98307.94
2023-01-19T15:51:26.757Z,98306.91
2023-01-19T15:53:54.489Z,98312.59
2023-01-19T15:56:29.652Z,98305.28
2023-01-19T15:58:57.781Z,98316.81
2023-01-19T16:01:26.587Z,98311.63
2023-01-19T16:03:53.029Z,98313.00
2023-01-19T16:06:19.377Z,98316.53
2023-01-19T16:08:45.799Z,98320.75
2023-01-19T16:11:14.311Z,98323.09
2023-01-19T16:13:40.839Z,98322.69
2023-01-19T16:16:13.448Z,98330.13
2023-01-19T16:18:39.740Z,98326.75
2023-01-19T16:21:06.155Z,98330.59
2023-01-19T16:23:32.533Z,98326.91
2023-01-19T16:26:01.374Z,98331.44
2023-01-19T16:28:27.752Z,98339.88
2023-01-19T16:30:54.327Z,98336.19
2023-01-19T16:33:20.955Z,98346.47
2023-01-19T16:35:47.254Z,98333.78
2023-01-19T16:38:14.067Z,98349.22
2023-01-19T16:40:40.451Z,98345.19
2023-01-19T16:43:06.977Z,98352.31
2023-01-19T16:45:33.347Z,98358.59
2023-01-19T16:47:59.750Z,98356.59
2023-01-19T16:50:26.170Z,98355.09
2023-01-19T16:52:56.235Z,98362.69
2023-01-19T16:55:22.543Z,98360.34
2023-01-19T16:57:50.898Z,98371.38
2023-01-19T17:00:17.847Z,98360.94
2023-01-19T17:02:44.265Z,98365.81
2023-01-19T17:05:10.896Z,98376.16
2023-01-19T17:07:37.839Z,98388.28
2023-01-19T17:10:04.619Z,98386.97
2023-01-19T17:12:32.307Z,98380.41
2023-01-19T17:14:58.914Z,98379.78
2023-01-19T17:17:25.214Z,98384.94
2023-01-19T17:19:51.584Z,98376.53
2023-01-19T17:22:17.995Z,98382.00
2023-01-19T17:24:44.414Z,98377.88
2023-01-19T17:27:10.800Z,98388.34
2023-01-19T17:29:37.184Z,98370.19
2023-01-19T17:32:04.047Z,98372.59
2023-01-19T17:34:30.428Z,98376.53
2023-01-19T17:36:56.844Z,98374.16
2023-01-19T17:39:24.616Z,98389.59
2023-01-19T17:41:50.923Z,98393.53
2023-01-19T17:44:17.804Z,98397.75
2023-01-19T17:46:44.109Z,98394.06
2023-01-19T17:49:10.915Z,98389.06
2023-01-19T17:51:37.455Z,98408.53
2023-01-19T17:54:04.409Z,98414.88
2023-01-19T17:56:32.016Z,98410.25
2023-01-19T17:58:59.286Z,98413.72
2023-01-19T18:01:31.521Z,98408.84
2023-01-19T18:03:58.534Z,98408.31
2023-01-19T18:06:25.097Z,98405.00
2023-01-19T18:08:51.512Z,98409.56
2023-01-19T18:11:19.622Z,98409.97
2023-01-19T18:13:47.770Z,98401.91
2023-01-19T18:16:17.122Z,98411.31
2023-01-19T18:18:43.652Z,98415.91
2023-01-19T18:21:11.959Z,98419.47
2023-01-19T18:23:38.798Z,98408.72
2023-01-19T18:26:08.252Z,98412.47
2023-01-19T18:28:35.368Z,98403.78
2023-01-19T18:31:02.554Z,98406.19
2023-01-19T18:33:29.399Z,98418.63
2023-01-19T18:35:55.799Z,98430.22
2023-01-19T18:38:22.206Z,98416.63
2023-01-19T18:40:48.616Z,98420.13
2023-01-19T18:43:14.979Z,98424.59
2023-01-19T18:45:41.374Z,98428.03
2023-01-19T18:48:08.234Z,98434.84
2023-01-19T18:50:34.794Z,98413.44
2023-01-19T18:53:01.204Z,98422.53
2023-01-19T18:55:27.509Z,98427.31
2023-01-19T18:57:54.204Z,98430.72
2023-01-19T19:00:20.876Z,98421.94
2023-01-19T19:02:47.194Z,98432.59
2023-01-19T19:05:13.652Z,98412.97
2023-01-19T19:07:40.052Z,98435.22
2023-01-19T19:10:06.962Z,98434.97
2023-01-19T19:12:33.265Z,98425.75
2023-01-19T19:14:59.673Z,98447.63
2023-01-19T19:17:26.117Z,98446.59
2023-01-19T19:19:52.659Z,98447.41
2023-01-19T19:22:20.079Z,98444.88
2023-01-19T19:24:46.424Z,98445.59
2023-01-19T19:27:12.839Z,98445.22
2023-01-19T19:29:39.424Z,98456.88
2023-01-19T19:32:05.845Z,98450.09
2023-01-19T19:34:32.263Z,98457.81
2023-01-19T19:37:01.076Z,98453.13
2023-01-19T19:39:27.752Z,98467.63
2023-01-19T19:41:54.211Z,98461.47
2023-01-19T19:44:20.524Z,98466.59
2023-01-19T19:46:46.899Z,98464.44
2023-01-19T19:49:13.376Z,98461.16
2023-01-19T19:51:39.839Z,98466.91
2023-01-19T19:54:06.238Z,98467.78
2023-01-19T19:56:32.631Z,98472.59
2023-01-19T19:58:59.441Z,98470.25
2023-01-19T20:01:30.629Z,98481.34
2023-01-19T20:04:04.483Z,98478.34
2023-01-19T20:06:30.855Z,98473.94
2023-01-19T20:08:57.213Z,98470.84
2023-01-19T20:11:26.701Z,98464.50
2023-01-19T20:13:53.586Z,98470.81
2023-01-19T20:16:22.940Z,98486.13
2023-01-19T20:18:51.463Z,98471.28
2023-01-19T20:21:23.449Z,98486.75
2023-01-19T20:23:50.780Z,98484.41
2023-01-19T20:26:19.928Z,98495.25
2023-01-19T20:28:48.563Z,98499.22
2023-01-19T20:31:28.917Z,98501.56
2023-01-19T20:33:57.621Z,98506.13
2023-01-19T20:36:24.467Z,98510.81
2023-01-19T20:38:52.722Z,98509.84
2023-01-19T20:41:20.396Z,98512.28
2023-01-19T20:43:46.705Z,98500.22
2023-01-19T20:46:13.256Z,98510.66
2023-01-19T20:48:39.727Z,98511.81
2023-01-19T20:51:08.833Z,98517.06
2023-01-19T20:53:35.890Z,98512.97
2023-01-19T20:56:07.015Z,98510.22
2023-01-19T20:58:34.161Z,98509.59
2023-01-19T21:01:00.706Z,98519.66
2023-01-19T21:03:27.500Z,98515.28
2023-01-19T21:05:53.807Z,98521.28
2023-01-19T21:08:20.239Z,98508.47
2023-01-19T21:10:46.604Z,98514.28
2023-01-19T21:13:13.381Z,98520.44
2023-01-19T21:15:39.714Z,98523.66
2023-01-19T21:18:06.154Z,98527.31
2023-01-19T21:20:32.467Z,98521.22
2023-01-19T21:22:58.934Z,98532.31
2023-01-19T21:25:25.424Z,98532.22
2023-01-19T21:27:51.774Z,98527.38
2023-01-19T21:30:18.700Z,98535.00
2023-01-19T21:32:45.265Z,98537.94
2023-01-19T21:35:11.812Z,98535.75
2023-01-19T21:37:38.524Z,98531.84
2023-01-19T21:40:05.470Z,98543.16
2023-01-19T21:42:31.784Z,98541.91
2023-01-19T21:44:58.844Z,98551.53
2023-01-19T21:47:25.208Z,98561.13
2023-01-19T21:49:51.632Z,98559.84
2023-01-19T21:52:17.948Z,98567.75
2023-01-19T21:54:44.364Z,98560.59
2023-01-19T21:57:10.661Z,98566.59
2023-01-19T21:59:36.953Z,98565.22
2023-01-19T22:02:03.435Z,98567.22
2023-01-19T22:04:29.879Z,98576.78
2023-01-19T22:06:57.753Z,98574.47
2023-01-19T22:09:24.141Z,98583.19
2023-01-19T22:11:50.859Z,98576.31
2023-01-19T22:14:17.257Z,98577.25
2023-01-19T22:16:44.088Z,98588.47
2023-01-19T22:19:11.691Z,98592.75
2023-01-19T22:21:38.089Z,98601.09
2023-01-19T22:24:05.358Z,98612.97
2023-01-19T22:26:32.941Z,98604.16
2023-01-19T22:29:00.904Z,98604.91
2023-01-19T22:31:28.832Z,98600.75
2023-01-19T22:33:55.395Z,98611.78
2023-01-19T22:36:28.096Z,98618.44
2023-01-19T22:39:00.223Z,98612.34
2023-01-19T22:41:32.113Z,98621.63
2023-01-19T22:44:03.141Z,98630.88
2023-01-19T22:46:33.032Z,98626.38
2023-01-19T22:48:59.834Z,98637.34
2023-01-19T22:51:27.383Z,98641.44
2023-01-19T22:53:53.822Z,98637.94
2023-01-19T22:56:28.626Z,98640.06
2023-01-19T22:58:55.861Z,98641.41
2023-01-19T23:01:26.944Z,98633.53
2023-01-19T23:03:54.635Z,98640.47
2023-01-19T23:06:29.856Z,98648.13
2023-01-19T23:08:59.420Z,98639.63
2023-01-19T23:11:28.528Z,98641.88
2023-01-19T23:13:55.316Z,98646.53
2023-01-19T23:16:22.032Z,98644.09
2023-01-19T23:18:52.923Z,98650.16
2023-01-19T23:21:22.670Z,98649.47
2023-01-19T23:23:49.234Z,98654.63
2023-01-19T23:26:21.156Z,98661.63
2023-01-19T23:28:53.248Z,98663.38
2023-01-19T23:31:20.813Z,98665.06
2023-01-19T23:33:47.248Z,98667.69
2023-01-19T23:36:14.407Z,98677.13
2023-01-19T23:38:41.807Z,98660.03
2023-01-19T23:41:08.794Z,98671.00
2023-01-19T23:43:35.545Z,98677.91
2023-01-19T23:46:07.056Z,98671.63
2023-01-19T23:48:34.583Z,98673.25
2023-01-19T23:51:12.320Z,98679.34
2023-01-19T23:53:38.969Z,98672.56
2023-01-19T23:56:14.655Z,98676.06
2023-01-19T23:58:41.413Z,98676.78
